createdAt,value
2022-09-14T00:00:30.106Z,302.5
2022-09-14T00:05:30.111Z,310
2022-09-14T00:10:30.107Z,300
2022-09-14T00:15:30.121Z,267.5
2022-09-14T00:20:30.110Z,332.5
2022-09-14T00:25:30.110Z,310
2022-09-14T00:30:30.104Z,315
2022-09-14T00:35:30.127Z,315
2022-09-14T00:40:30.197Z,305
2022-09-14T00:45:30.166Z,295
2022-09-14T00:50:30.104Z,290
2022-09-14T00:55:30.108Z,220
2022-09-14T01:00:30.104Z,225
2022-09-14T01:05:30.103Z,310
2022-09-14T01:10:30.110Z,300
2022-09-14T01:15:30.108Z,302.5
2022-09-14T01:20:30.107Z,310
2022-09-14T01:25:30.112Z,315
2022-09-14T01:30:30.099Z,305
2022-09-14T01:35:30.113Z,322.5
2022-09-14T01:40:30.162Z,310
2022-09-14T01:45:30.149Z,312.5
2022-09-14T01:50:30.116Z,302.5
2022-09-14T01:55:30.119Z,310
2022-09-14T02:00:30.105Z,310
2022-09-14T02:05:30.108Z,312.5
2022-09-14T02:10:30.119Z,325
2022-09-14T02:15:30.109Z,317.5
2022-09-14T02:20:30.104Z,315
2022-09-14T02:25:30.122Z,307.5
2022-09-14T02:30:30.098Z,312.5
2022-09-14T02:35:30.119Z,312.5
2022-09-14T02:40:30.215Z,310
2022-09-14T02:45:30.123Z,315
2022-09-14T02:50:30.114Z,315
2022-09-14T02:55:30.112Z,315
2022-09-14T03:00:30.143Z,302.5
2022-09-14T03:05:30.116Z,240
2022-09-14T03:10:30.113Z,227.5
2022-09-14T03:15:30.104Z,227.5
2022-09-14T03:20:30.122Z,227.5
2022-09-14T03:25:30.110Z,222.5
2022-09-14T03:30:30.107Z,220
2022-09-14T03:35:30.107Z,180
2022-09-14T03:40:30.168Z,150
2022-09-14T03:45:30.108Z,150
2022-09-14T03:50:30.115Z,145
2022-09-14T03:55:30.117Z,40
2022-09-14T04:00:30.133Z,35
2022-09-14T04:05:30.118Z,35
2022-09-14T04:10:30.112Z,35
2022-09-14T04:15:30.109Z,32.5
2022-09-14T04:20:30.113Z,240
2022-09-14T04:25:30.122Z,240
2022-09-14T04:30:30.114Z,225
2022-09-14T04:35:30.117Z,200
2022-09-14T04:40:30.166Z,205
2022-09-14T04:45:30.115Z,205
2022-09-14T04:50:30.104Z,202.5
2022-09-14T04:55:30.101Z,52.5
2022-09-14T05:00:30.108Z,57.5
2022-09-14T05:05:30.118Z,60
2022-09-14T05:10:30.112Z,60
2022-09-14T05:15:30.114Z,60
2022-09-14T05:20:30.103Z,60
2022-09-14T05:25:30.115Z,60
2022-09-14T05:30:30.108Z,337.5
2022-09-14T05:35:30.114Z,312.5
2022-09-14T05:40:30.180Z,82.5
2022-09-14T05:45:30.116Z,80
2022-09-14T05:50:30.115Z,52.5
2022-09-14T05:55:30.116Z,55
2022-09-14T06:00:30.108Z,35
2022-09-14T06:05:30.182Z,25
2022-09-14T06:10:30.117Z,12.5
2022-09-14T06:15:30.118Z,5
2022-09-14T06:20:30.098Z,5
2022-09-14T06:25:30.114Z,7.5
2022-09-14T06:30:30.110Z,60
2022-09-14T06:35:30.111Z,85
2022-09-14T06:40:30.210Z,20
2022-09-14T06:45:30.109Z,17.5
2022-09-14T06:50:30.104Z,72.5
2022-09-14T06:55:30.114Z,40
2022-09-14T07:00:30.108Z,12.5
2022-09-14T07:05:30.114Z,65
2022-09-14T07:10:30.108Z,340
2022-09-14T07:15:30.119Z,347.5
2022-09-14T07:20:30.103Z,17.5
2022-09-14T07:25:30.109Z,62.5
2022-09-14T07:30:30.136Z,57.5
2022-09-14T07:35:30.104Z,35
2022-09-14T07:40:30.156Z,35
2022-09-14T07:45:30.245Z,342.5
2022-09-14T07:50:30.107Z,345
2022-09-14T07:55:30.118Z,5
2022-09-14T08:00:30.105Z,40
2022-09-14T08:05:30.123Z,345
2022-09-14T08:10:30.114Z,17.5
2022-09-14T08:15:30.113Z,10
2022-09-14T08:20:30.108Z,72.5
2022-09-14T08:25:30.109Z,72.5
2022-09-14T08:30:30.104Z,105
2022-09-14T08:35:53.795Z,105
2022-09-14T08:40:30.180Z,105
2022-09-14T08:45:30.194Z,10
2022-09-14T08:50:30.110Z,352.5
2022-09-14T08:55:30.115Z,322.5
2022-09-14T09:00:30.201Z,245
2022-09-14T09:05:30.113Z,275
2022-09-14T09:10:30.105Z,265
2022-09-14T09:15:30.114Z,257.5
2022-09-14T09:20:30.124Z,315
2022-09-14T09:25:30.115Z,255
2022-09-14T09:30:30.113Z,267.5
2022-09-14T09:35:30.107Z,255
2022-09-14T09:40:30.213Z,265
2022-09-14T09:45:30.110Z,265
2022-09-14T09:50:30.117Z,272.5
2022-09-14T09:55:30.130Z,272.5
2022-09-14T10:00:30.115Z,267.5
2022-09-14T10:05:30.114Z,255
2022-09-14T10:10:30.110Z,267.5
2022-09-14T10:15:30.110Z,267.5
2022-09-14T10:20:30.096Z,260
2022-09-14T10:25:30.115Z,252.5
2022-09-14T10:30:30.108Z,247.5
2022-09-14T10:35:30.127Z,245
2022-09-14T10:40:30.186Z,265
2022-09-14T10:45:30.111Z,255
2022-09-14T10:50:30.099Z,232.5
2022-09-14T10:55:30.114Z,260
2022-09-14T11:00:30.099Z,262.5
2022-09-14T11:05:30.115Z,275
2022-09-14T11:10:30.099Z,267.5
2022-09-14T11:15:30.115Z,252.5
2022-09-14T11:20:30.098Z,277.5
2022-09-14T11:25:30.117Z,260
2022-09-14T11:30:30.114Z,257.5
2022-09-14T11:35:30.124Z,257.5
2022-09-14T11:40:30.162Z,255
2022-09-14T11:45:30.111Z,255
2022-09-14T11:50:30.104Z,267.5
2022-09-14T11:55:30.110Z,272.5
2022-09-14T12:00:30.104Z,255
2022-09-14T12:05:30.113Z,257.5
2022-09-14T12:10:30.106Z,245
2022-09-14T12:15:30.157Z,270
2022-09-14T12:20:30.101Z,270
2022-09-14T12:25:30.112Z,270
2022-09-14T12:30:30.121Z,267.5
2022-09-14T12:35:30.115Z,262.5
2022-09-14T12:40:30.279Z,290
2022-09-14T12:45:30.111Z,307.5
2022-09-14T12:50:30.119Z,310
2022-09-14T12:55:30.119Z,307.5
2022-09-14T13:00:30.102Z,280
2022-09-14T13:05:30.126Z,250
2022-09-14T13:10:30.119Z,262.5
2022-09-14T13:15:30.205Z,257.5
2022-09-14T13:20:30.105Z,290
2022-09-14T13:25:30.135Z,250
2022-09-14T13:30:30.192Z,285
2022-09-14T13:35:30.113Z,300
2022-09-14T13:40:30.195Z,325
2022-09-14T13:45:30.119Z,315
2022-09-14T13:50:30.107Z,317.5
2022-09-14T13:55:30.112Z,305
2022-09-14T14:00:30.101Z,315
2022-09-14T14:05:30.110Z,315
2022-09-14T14:10:30.098Z,315
2022-09-14T14:15:30.110Z,305
2022-09-14T14:20:30.098Z,310
2022-09-14T14:25:30.108Z,310
2022-09-14T14:30:30.114Z,280
2022-09-14T14:35:30.109Z,255
2022-09-14T14:40:30.247Z,255
2022-09-14T14:45:33.158Z,295
2022-09-14T14:50:30.108Z,275
2022-09-14T14:55:30.114Z,252.5
2022-09-14T15:00:30.105Z,215
2022-09-14T15:05:30.106Z,220
2022-09-14T15:10:30.113Z,290
2022-09-14T15:15:30.113Z,290
2022-09-14T15:20:30.111Z,280
2022-09-14T15:25:30.112Z,325
2022-09-14T15:30:30.110Z,335
2022-09-14T15:35:30.120Z,240
2022-09-14T15:40:30.141Z,190
2022-09-14T15:45:30.150Z,172.5
2022-09-14T15:50:30.108Z,210
2022-09-14T15:55:30.111Z,210
2022-09-14T16:00:30.106Z,220
2022-09-14T16:05:30.122Z,210
2022-09-14T16:10:30.110Z,220
2022-09-14T16:15:30.119Z,230
2022-09-14T16:20:30.102Z,225
2022-09-14T16:25:30.122Z,230
2022-09-14T16:30:30.103Z,255
2022-09-14T16:35:30.109Z,280
2022-09-14T16:40:30.210Z,232.5
2022-09-14T16:45:30.136Z,230
2022-09-14T16:50:30.102Z,240
2022-09-14T16:55:30.122Z,225
2022-09-14T17:00:30.152Z,222.5
2022-09-14T17:05:30.116Z,230
2022-09-14T17:10:30.119Z,237.5
2022-09-14T17:15:30.105Z,277.5
2022-09-14T17:20:30.114Z,300
2022-09-14T17:25:30.122Z,312.5
2022-09-14T17:30:30.110Z,290
2022-09-14T17:35:30.118Z,275
2022-09-14T17:40:30.211Z,275
2022-09-14T17:45:30.109Z,272.5
2022-09-14T17:50:30.105Z,265
2022-09-14T17:55:30.118Z,262.5
2022-09-14T18:00:30.109Z,260
2022-09-14T18:05:30.123Z,232.5
2022-09-14T18:10:30.123Z,225
2022-09-14T18:15:31.057Z,225
2022-09-14T18:20:30.148Z,220
2022-09-14T18:25:30.136Z,235
2022-09-14T18:30:30.117Z,232.5
2022-09-14T18:35:30.118Z,225
2022-09-14T18:40:30.132Z,220
2022-09-14T18:45:30.111Z,240
2022-09-14T18:50:30.115Z,242.5
2022-09-14T18:55:30.115Z,270
2022-09-14T19:00:30.098Z,252.5
2022-09-14T19:05:30.121Z,262.5
2022-09-14T19:10:30.112Z,235
2022-09-14T19:15:32.656Z,227.5
2022-09-14T19:20:43.288Z,222.5
2022-09-14T19:25:30.107Z,222.5
2022-09-14T19:30:30.095Z,205
2022-09-14T19:35:30.107Z,205
2022-09-14T19:40:30.181Z,197.5
2022-09-14T19:45:30.109Z,197.5
2022-09-14T19:50:30.102Z,200
2022-09-14T19:55:30.100Z,222.5
2022-09-14T20:00:30.104Z,240
2022-09-14T20:05:30.104Z,240
2022-09-14T20:10:30.117Z,220
2022-09-14T20:15:30.110Z,235
2022-09-14T20:20:30.103Z,235
2022-09-14T20:25:30.107Z,235
2022-09-14T20:30:30.112Z,235
2022-09-14T20:35:30.108Z,270
2022-09-14T20:40:30.174Z,270
2022-09-14T20:50:30.115Z,262.5
2022-09-14T20:55:30.120Z,287.5
2022-09-14T21:00:30.110Z,280
2022-09-14T21:05:30.113Z,262.5
2022-09-14T21:10:30.101Z,275
2022-09-14T21:15:30.175Z,265
2022-09-14T21:20:30.109Z,265
2022-09-14T21:25:30.106Z,270
2022-09-14T21:30:30.099Z,260
2022-09-14T21:35:33.510Z,272.5
2022-09-14T21:40:30.177Z,270
2022-09-14T21:45:30.122Z,270
2022-09-14T21:50:30.107Z,277.5
2022-09-14T21:55:30.120Z,265
2022-09-14T22:00:30.934Z,275
2022-09-14T22:05:30.109Z,270
2022-09-14T22:10:30.115Z,272.5
2022-09-14T22:15:30.152Z,265
2022-09-14T22:20:30.112Z,270
2022-09-14T22:25:30.115Z,277.5
2022-09-14T22:30:30.153Z,272.5
2022-09-14T22:35:30.117Z,270
2022-09-14T22:40:30.177Z,272.5
2022-09-14T22:45:30.104Z,275
2022-09-14T22:50:30.111Z,270
2022-09-14T22:55:30.120Z,270
2022-09-14T23:00:30.111Z,280
2022-09-14T23:05:30.125Z,270
2022-09-14T23:10:30.111Z,255
2022-09-14T23:15:30.123Z,247.5
2022-09-14T23:20:30.107Z,237.5
2022-09-14T23:25:30.116Z,232.5
2022-09-14T23:30:30.177Z,235
2022-09-14T23:35:30.114Z,252.5
2022-09-14T23:40:30.196Z,257.5
2022-09-14T23:45:30.123Z,255
2022-09-14T23:50:30.103Z,250
2022-09-14T23:55:30.116Z,260
